KAXH

Houston-Southwest Airport

Houston, Texas, USA
METAR KAXH 221435Z AUTO 04006KT 10SM CLR 13/09 A3020 RMK AO2 T01330092
Observed Flight Rules
Oct-22 @ 14:35 UTC (17 minutes ago) Visual Flight Rules
Wind Visibility Clouds
40° at 6 knots 10 miles
  • Clear skies
Temperatures Readings
Current 13°C / 55°F
Dewpoint 9°C / 48°F
Humidity 77%
Altimeter 30.2" Hg
Pressure 1023 hPa
Elevation 21
METAR KAXH 221435Z AUTO 04006KT 10SM CLR 13/09 A3020 RMK AO2 T01330092
Observed Flight Rules
Oct-22 @ 14:35 UTC
(17 minutes ago)
VFR
Wind Visibility
40° at 6 knots 10 miles
Clouds
  • Clear skies
Temperature Dewpoint
13°C / 55°F 9°C / 48°F
Humidity Altimeter Pressure
77% 30.2" Hg 1023 hPa